Time;durP1;ratioP1;P1;durP2;ratioP2;P2;SDS_P1;SDS_P2;PMS_P1;PMS_P2;Temp;Humidity;BMP_temperature;BMP_pressure;BME280_temperature;BME280_humidity;BME280_pressure;Samples;Min_cycle;Max_cycle;Signal;HPM_P1;HPM_P2
2022/08/20 00:02:23;;;;;;;;;;;;;;;25.45;66.95;100761.41;4999647;28;4248;-60
2022/08/20 00:04:49;;;;;;;;;;;;;;;25.43;66.94;100759.19;4999823;28;4239;-60
2022/08/20 00:07:16;;;;;;;;;;;;;;;25.45;66.95;100762.16;5000928;28;4003;-59
2022/08/20 00:09:42;;;;;;;;;;;;;;;25.44;67.00;100775.16;4999838;28;4412;-60
2022/08/20 00:12:09;;;;;;;;;;;;;;;25.44;66.93;100780.22;5000848;28;4084;-60
2022/08/20 00:14:35;;;;;;;;;;;;;;;25.44;66.96;100772.25;5003526;28;4215;-60
2022/08/20 00:17:02;;;;;;;;;;;;;;;25.43;66.85;100770.78;4999461;28;4256;-60
2022/08/20 00:19:29;;;;;;;;;;;;;;;25.39;66.96;100761.25;4997757;28;4228;-60
2022/08/20 00:21:55;;;;;;;;;;;;;;;25.44;67.05;100771.53;4997622;28;4122;-60
2022/08/20 00:24:23;;;;;;;;;;;;;;;25.45;66.88;100776.63;4999628;28;5315;-60
2022/08/20 00:26:50;;;;;;;;;;;;;;;25.46;66.70;100781.00;5000274;28;4065;-60
2022/08/20 00:29:18;;;;;;;;;;;;;;;25.44;66.82;100778.06;5000363;28;5118;-60
2022/08/20 00:31:45;;;;;;;;;;;;;;;25.45;66.89;100779.53;4999251;28;4332;-60
2022/08/20 00:34:11;;;;;;;;;;;;;;;25.44;66.99;100786.75;5001399;28;4131;-60
2022/08/20 00:36:38;;;;;;;;;;;;;;;25.45;67.11;100785.34;4999813;28;4111;-60
2022/08/20 00:39:04;;;;;;;;;;;;;;;25.44;67.21;100780.94;5001298;28;4455;-60
2022/08/20 00:41:31;;;;;;;;;;;;;;;25.44;67.18;100789.66;4999298;28;4155;-60
2022/08/20 00:44:09;;;;;;;;;;;;;;;25.44;67.21;100783.84;5000000;28;4564;-60
2022/08/20 00:46:35;;;;;;;;;;;;;;;25.47;67.34;100787.53;4999211;28;5298;-61
2022/08/20 00:49:04;;;;;;;;;;;;;;;25.47;67.40;100782.50;4999575;28;5171;-59
2022/08/20 00:51:38;;;;;;;;;;;;;;;25.47;67.32;100781.72;5000099;28;5464;-59
2022/08/20 00:54:05;;;;;;;;;;;;;;;25.47;67.32;100781.72;4998961;28;3975;-59
2022/08/20 00:56:32;;;;;;;;;;;;;;;25.46;67.37;100778.09;5000467;28;4216;-60
2022/08/20 00:58:59;;;;;;;;;;;;;;;25.45;67.38;100788.25;5001115;28;4257;-60
2022/08/20 01:01:25;;;;;;;;;;;;;;;25.44;67.36;100780.22;4999563;28;4240;-60
2022/08/20 01:03:55;;;;;;;;;;;;;;;25.42;67.53;100785.97;5000579;28;4206;-59
2022/08/20 01:06:23;;;;;;;;;;;;;;;25.41;67.47;100791.03;4999397;28;5324;-59
2022/08/20 01:08:52;;;;;;;;;;;;;;;25.40;67.60;100783.75;5000340;28;5599;-59
2022/08/20 01:11:29;;;;;;;;;;;;;;;25.41;67.76;100785.22;5000774;28;4529;-59
2022/08/20 01:16:48;;;;;;;;;;;;;;;25.39;67.87;100793.88;4999354;28;4507;-59
2022/08/20 01:19:14;;;;;;;;;;;;;;;25.39;67.91;100799.66;4995818;28;5377;-60
2022/08/20 01:21:55;;;;;;;;;;;;;;;25.39;67.90;100793.88;4996662;28;5227;-59
2022/08/20 01:24:33;;;;;;;;;;;;;;;25.41;67.61;100793.94;4998452;28;4318;-59
2022/08/20 01:27:00;;;;;;;;;;;;;;;25.41;67.49;100790.31;4997517;28;4429;-59
2022/08/20 01:29:28;;;;;;;;;;;;;;;25.43;67.38;100787.44;4992249;28;4056;-59
2022/08/20 01:32:00;;;;;;;;;;;;;;;25.43;67.35;100793.25;4993269;28;4209;-60
2022/08/20 01:34:26;;;;;;;;;;;;;;;25.41;67.45;100796.81;4998462;28;4199;-60
2022/08/20 01:36:53;;;;;;;;;;;;;;;25.42;67.42;100798.28;4998223;28;4176;-59
2022/08/20 01:39:23;;;;;;;;;;;;;;;25.43;67.61;100799.03;4999460;28;4187;-60
2022/08/20 01:42:11;;;;;;;;;;;;;;;25.44;67.42;100794.72;4997246;28;4244;-59
2022/08/20 01:44:38;;;;;;;;;;;;;;;25.42;67.59;100786.69;5003991;28;4149;-60
2022/08/20 01:47:09;;;;;;;;;;;;;;;25.42;67.40;100792.50;5000000;28;4276;-59
2022/08/20 01:49:38;;;;;;;;;;;;;;;25.44;67.24;100794.72;4998926;28;4056;-59
2022/08/20 01:52:06;;;;;;;;;;;;;;;25.43;67.42;100793.97;4999454;28;4310;-59
2022/08/20 01:54:32;;;;;;;;;;;;;;;25.44;67.45;100791.81;4998696;28;4205;-60
2022/08/20 01:57:04;;;;;;;;;;;;;;;25.43;67.30;100791.09;5003942;28;4138;-59
2022/08/20 01:59:31;;;;;;;;;;;;;;;25.43;67.38;100793.97;4998366;28;4234;-59
2022/08/20 02:01:57;;;;;;;;;;;;;;;25.44;67.23;100794.72;4999918;28;4214;-59
2022/08/20 02:04:25;;;;;;;;;;;;;;;25.42;67.19;100792.50;4999374;28;4203;-59
2022/08/20 02:06:54;;;;;;;;;;;;;;;25.42;67.16;100789.59;4998276;28;4076;-59
2022/08/20 02:09:24;;;;;;;;;;;;;;;25.43;67.44;100793.25;4999711;28;5290;-59
2022/08/20 02:11:52;;;;;;;;;;;;;;;25.43;67.41;100788.19;4997491;28;4163;-60
2022/08/20 02:14:19;;;;;;;;;;;;;;;25.44;67.34;100792.53;4999088;28;4541;-61
2022/08/20 02:16:46;;;;;;;;;;;;;;;25.43;67.39;100799.78;4998623;28;4139;-60
2022/08/20 02:19:23;;;;;;;;;;;;;;;25.43;67.30;100793.97;4997312;28;4239;-59
2022/08/20 02:21:50;;;;;;;;;;;;;;;25.44;67.25;100806.31;4997477;28;4184;-59
2022/08/20 02:24:17;;;;;;;;;;;;;;;25.43;67.30;100804.84;5001003;28;4991;-60
2022/08/20 02:26:43;;;;;;;;;;;;;;;25.44;67.20;100812.09;4996491;28;4223;-59
2022/08/20 02:29:10;;;;;;;;;;;;;;;25.44;67.35;100809.22;4997109;28;5271;-59
2022/08/20 02:31:36;;;;;;;;;;;;;;;25.43;67.30;100808.47;4997844;28;4205;-60
2022/08/20 02:34:22;;;;;;;;;;;;;;;25.44;67.28;100812.09;4998364;28;4217;-59
2022/08/20 02:36:49;;;;;;;;;;;;;;;25.43;67.28;100814.28;4997651;28;4248;-59
2022/08/20 02:39:15;;;;;;;;;;;;;;;25.43;67.21;100811.38;4998436;28;4083;-59
2022/08/20 02:41:42;;;;;;;;;;;;;;;25.43;67.25;100811.38;4997220;28;5280;-60
2022/08/20 02:44:08;;;;;;;;;;;;;;;25.43;67.23;100817.19;4998166;28;4501;-59
2022/08/20 02:46:34;;;;;;;;;;;;;;;25.43;67.03;100822.97;4999255;28;5408;-59
2022/08/20 02:49:02;;;;;;;;;;;;;;;25.44;67.49;100827.34;4997203;28;4399;-59
2022/08/20 02:51:28;;;;;;;;;;;;;;;25.45;67.51;100819.41;4995146;28;4375;-59
2022/08/20 02:53:55;;;;;;;;;;;;;;;25.43;67.52;100822.97;4998333;28;4217;-59
2022/08/20 02:56:22;;;;;;;;;;;;;;;25.43;67.38;100822.97;4997705;28;4175;-60
2022/08/20 02:58:48;;;;;;;;;;;;;;;25.43;67.44;100822.97;4998417;28;4150;-59
2022/08/20 03:01:15;;;;;;;;;;;;;;;25.42;67.68;100821.47;4998062;28;4265;-59
2022/08/20 03:03:41;;;;;;;;;;;;;;;25.43;67.37;100822.97;4998080;28;4219;-60
2022/08/20 03:06:08;;;;;;;;;;;;;;;25.41;67.44;100817.13;4996174;28;4075;-59
2022/08/20 03:08:35;;;;;;;;;;;;;;;25.44;67.52;100817.91;4996508;28;4223;-60
2022/08/20 03:11:01;;;;;;;;;;;;;;;25.43;67.59;100805.56;4998196;28;4038;-59
2022/08/20 03:13:27;;;;;;;;;;;;;;;25.43;67.56;100799.78;4997766;28;4028;-59
2022/08/20 03:15:55;;;;;;;;;;;;;;;25.40;67.57;100795.34;4996675;28;6290;-59
2022/08/20 03:18:25;;;;;;;;;;;;;;;25.40;67.64;100795.34;4998197;28;4080;-59
2022/08/20 03:20:51;;;;;;;;;;;;;;;25.40;67.74;100795.34;4998016;28;4176;-59
2022/08/20 03:23:18;;;;;;;;;;;;;;;25.40;67.87;100795.34;4998423;28;4208;-59
2022/08/20 03:25:45;;;;;;;;;;;;;;;25.40;67.94;100801.13;4998273;28;5234;-59
2022/08/20 03:28:11;;;;;;;;;;;;;;;25.38;67.95;100786.63;4997966;28;4224;-59
2022/08/20 03:30:38;;;;;;;;;;;;;;;25.39;68.08;100793.16;4999378;28;4375;-60
2022/08/20 03:33:04;;;;;;;;;;;;;;;25.39;67.97;100788.06;4998714;28;4155;-59
2022/08/20 03:35:31;;;;;;;;;;;;;;;25.38;68.07;100775.03;4997892;28;5210;-61
2022/08/20 03:37:57;;;;;;;;;;;;;;;25.39;68.06;100776.47;5000927;28;4530;-59
2022/08/20 03:40:25;;;;;;;;;;;;;;;25.37;68.17;100782.22;5002113;28;4000;-59
2022/08/20 03:42:51;;;;;;;;;;;;;;;25.39;68.20;100782.28;5001785;28;4154;-59
2022/08/20 03:45:18;;;;;;;;;;;;;;;25.38;67.89;100780.81;5002921;28;4076;-59
2022/08/20 03:47:46;;;;;;;;;;;;;;;25.38;68.17;100780.81;5001280;28;4198;-59
2022/08/20 03:50:12;;;;;;;;;;;;;;;25.37;68.23;100782.22;5002062;28;4244;-59
2022/08/20 03:52:48;;;;;;;;;;;;;;;25.38;68.08;100792.41;5000226;28;5028;-59
2022/08/20 03:55:14;;;;;;;;;;;;;;;25.38;68.17;100786.63;5001863;28;5322;-59
2022/08/20 03:57:44;;;;;;;;;;;;;;;25.37;68.18;100785.13;5000609;28;4208;-59
2022/08/20 04:00:12;;;;;;;;;;;;;;;25.37;68.12;100790.94;5001888;28;4534;-59
2022/08/20 04:02:40;;;;;;;;;;;;;;;25.38;68.13;100788.75;4999342;28;4161;-59
2022/08/20 04:05:06;;;;;;;;;;;;;;;25.38;68.22;100792.41;5001119;28;4494;-59
2022/08/20 04:07:32;;;;;;;;;;;;;;;25.37;68.32;100793.81;5000937;28;4291;-59
2022/08/20 04:09:59;;;;;;;;;;;;;;;25.37;68.36;100801.78;5001108;28;6405;-59
2022/08/20 04:12:26;;;;;;;;;;;;;;;25.37;68.23;100807.59;5001896;28;4609;-59
2022/08/20 04:14:52;;;;;;;;;;;;;;;25.37;68.25;100817.00;5000971;28;4187;-59
2022/08/20 04:17:19;;;;;;;;;;;;;;;25.37;68.34;100808.31;5001324;28;4262;-59
2022/08/20 04:19:47;;;;;;;;;;;;;;;25.36;68.21;100818.44;5000377;28;5501;-59
2022/08/20 04:22:13;;;;;;;;;;;;;;;25.36;68.21;100821.34;5001950;28;4250;-59
2022/08/20 04:24:40;;;;;;;;;;;;;;;25.37;68.33;100824.97;5001622;28;4160;-59
2022/08/20 04:27:07;;;;;;;;;;;;;;;25.36;68.36;100830.03;5000884;28;4000;-59
2022/08/20 04:29:33;;;;;;;;;;;;;;;25.35;68.39;100822.75;5001074;28;4294;-59
2022/08/20 04:32:01;;;;;;;;;;;;;;;25.36;68.23;100829.28;5000581;28;4374;-59
2022/08/20 04:34:31;;;;;;;;;;;;;;;25.36;68.30;100815.56;5001077;28;4973;-60
2022/08/20 04:36:57;;;;;;;;;;;;;;;25.35;68.29;100822.75;5001809;28;4057;-59
2022/08/20 04:39:24;;;;;;;;;;;;;;;25.35;68.15;100828.56;5001695;28;5239;-59
2022/08/20 04:41:50;;;;;;;;;;;;;;;25.35;68.27;100822.75;5001117;28;4196;-59
2022/08/20 04:44:16;;;;;;;;;;;;;;;25.35;68.21;100816.97;5000608;28;5472;-59
2022/08/20 04:46:43;;;;;;;;;;;;;;;25.35;68.25;100828.56;4998628;28;4540;-59
2022/08/20 04:49:09;;;;;;;;;;;;;;;25.34;68.30;100832.88;5001684;28;5385;-59
2022/08/20 04:51:35;;;;;;;;;;;;;;;25.35;68.32;100828.56;4999442;28;4558;-59
2022/08/20 04:54:03;;;;;;;;;;;;;;;25.33;68.33;100819.81;5001610;28;5247;-59
2022/08/20 04:56:30;;;;;;;;;;;;;;;25.32;68.34;100818.34;5000503;28;4072;-59
2022/08/20 04:58:57;;;;;;;;;;;;;;;25.33;68.33;100819.81;4999515;28;4192;-59
2022/08/20 05:01:24;;;;;;;;;;;;;;;25.33;68.25;100825.59;4998453;28;5251;-59
2022/08/20 05:03:53;;;;;;;;;;;;;;;25.33;68.37;100827.78;4997614;28;4139;-59
2022/08/20 05:06:20;;;;;;;;;;;;;;;25.32;68.33;100832.84;4996175;28;4253;-59
2022/08/20 05:08:46;;;;;;;;;;;;;;;25.34;68.36;100832.88;4998197;28;4190;-59
2022/08/20 05:11:15;;;;;;;;;;;;;;;25.33;68.48;100831.41;4997779;28;4084;-59
2022/08/20 05:14:01;;;;;;;;;;;;;;;25.31;68.46;100842.94;4997314;28;4185;-59
2022/08/20 05:16:28;;;;;;;;;;;;;;;25.30;68.55;100844.38;4999220;28;4243;-59
2022/08/20 05:18:54;;;;;;;;;;;;;;;25.31;68.47;100848.72;4999417;28;4171;-59
2022/08/20 05:21:21;;;;;;;;;;;;;;;25.31;68.54;100851.63;4996780;28;5347;-59
2022/08/20 05:23:47;;;;;;;;;;;;;;;25.31;68.50;100845.84;4998576;28;4211;-59
2022/08/20 05:26:14;;;;;;;;;;;;;;;25.31;68.38;100848.72;4996402;28;5253;-60
2022/08/20 05:28:41;;;;;;;;;;;;;;;25.32;68.43;100858.19;4996979;28;4767;-59
2022/08/20 05:31:19;;;;;;;;;;;;;;;25.32;68.31;100852.38;4995740;28;4254;-59
2022/08/20 05:33:49;;;;;;;;;;;;;;;25.31;68.46;100845.84;4999442;28;4190;-59
2022/08/20 05:36:16;;;;;;;;;;;;;;;25.31;68.41;100857.44;4996532;28;3988;-59
2022/08/20 05:38:42;;;;;;;;;;;;;;;25.30;68.47;100850.16;4996616;28;4342;-59
2022/08/20 05:41:14;;;;;;;;;;;;;;;25.30;68.53;100844.38;4998293;28;5387;-59
2022/08/20 05:44:01;;;;;;;;;;;;;;;25.30;68.54;100850.16;4998428;28;4518;-59
2022/08/20 05:46:30;;;;;;;;;;;;;;;25.31;68.43;100842.22;4997451;28;4229;-59
2022/08/20 05:48:57;;;;;;;;;;;;;;;25.30;68.45;100838.56;4999564;28;5422;-60
2022/08/20 05:51:25;;;;;;;;;;;;;;;25.28;68.53;100836.34;4998910;28;5223;-60
2022/08/20 05:53:51;;;;;;;;;;;;;;;25.29;68.53;100840.75;4998974;28;4469;-60
2022/08/20 05:56:17;;;;;;;;;;;;;;;25.29;68.60;100843.63;4999682;28;4267;-59
2022/08/20 05:58:46;;;;;;;;;;;;;;;25.29;68.47;100854.50;4997966;28;4258;-59
2022/08/20 06:01:16;;;;;;;;;;;;;;;25.28;68.53;100847.22;4998345;28;4365;-59
2022/08/20 06:06:27;;;;;;;;;;;;;;;25.29;68.54;100854.50;4996175;28;5463;-59
2022/08/20 06:09:10;;;;;;;;;;;;;;;25.29;68.59;100861.03;4998988;28;4190;-59
2022/08/20 06:11:36;;;;;;;;;;;;;;;25.29;68.58;100860.28;4996610;28;5486;-60
2022/08/20 06:14:03;;;;;;;;;;;;;;;25.30;68.54;100867.56;4996619;28;4612;-59
2022/08/20 06:16:30;;;;;;;;;;;;;;;25.30;68.51;100870.47;4998548;28;4228;-64
2022/08/20 06:18:57;;;;;;;;;;;;;;;25.29;68.46;100871.88;4998656;28;4249;-59
2022/08/20 06:21:23;;;;;;;;;;;;;;;25.30;68.41;100873.34;4997147;28;4180;-59
2022/08/20 06:23:50;;;;;;;;;;;;;;;25.30;68.55;100879.16;4996923;28;4318;-59
2022/08/20 06:26:24;;;;;;;;;;;;;;;25.29;68.43;100880.59;4996210;28;4084;-59
2022/08/20 06:28:56;;;;;;;;;;;;;;;25.29;68.51;100877.69;4996512;28;4234;-59
2022/08/20 06:31:22;;;;;;;;;;;;;;;25.30;68.53;100884.94;4995736;28;4186;-59
2022/08/20 06:33:48;;;;;;;;;;;;;;;25.29;68.67;100880.59;4995976;28;4160;-59
2022/08/20 06:36:15;;;;;;;;;;;;;;;25.28;68.60;100884.88;4996793;28;4233;-59
2022/08/20 06:38:44;;;;;;;;;;;;;;;25.28;68.62;100882.00;4997257;28;5310;-59
2022/08/20 06:41:11;;;;;;;;;;;;;;;25.27;68.50;100887.06;4996645;28;4531;-59
2022/08/20 06:43:37;;;;;;;;;;;;;;;25.28;68.52;100888.53;4995893;28;4314;-59
2022/08/20 06:46:05;;;;;;;;;;;;;;;25.28;68.50;100882.00;4996321;28;4315;-59
2022/08/20 06:48:32;;;;;;;;;;;;;;;25.28;68.58;100894.31;4997868;28;5245;-59
2022/08/20 06:50:58;;;;;;;;;;;;;;;25.28;68.53;100893.59;4996594;28;4192;-59
2022/08/20 06:53:24;;;;;;;;;;;;;;;25.30;68.44;100899.44;4997947;28;4065;-59
2022/08/20 06:55:51;;;;;;;;;;;;;;;25.31;68.52;100898.00;4998708;28;4161;-59
2022/08/20 06:58:18;;;;;;;;;;;;;;;25.32;68.61;100904.56;4998782;28;4309;-59
2022/08/20 07:01:04;;;;;;;;;;;;;;;25.32;68.58;100898.75;4997701;28;4107;-59
2022/08/20 07:03:36;;;;;;;;;;;;;;;25.31;68.58;100895.09;4993518;28;4267;-60
2022/08/20 07:06:03;;;;;;;;;;;;;;;25.30;68.56;100896.53;4995877;28;4165;-59
2022/08/20 07:08:29;;;;;;;;;;;;;;;25.30;68.59;100896.53;4997600;28;4246;-63
2022/08/20 07:10:56;;;;;;;;;;;;;;;25.28;68.55;100893.59;4997422;28;4256;-59
2022/08/20 07:13:23;;;;;;;;;;;;;;;25.29;68.58;100900.88;4999673;28;4230;-59
2022/08/20 07:15:50;;;;;;;;;;;;;;;25.28;68.62;100908.06;5002567;28;4113;-59
2022/08/20 07:18:19;;;;;;;;;;;;;;;25.27;68.58;100918.94;5001534;28;4232;-59
2022/08/20 07:20:55;;;;;;;;;;;;;;;25.27;68.57;100916.03;5001114;28;4194;-59
2022/08/20 07:23:22;;;;;;;;;;;;;;;25.27;68.35;100909.50;5001364;28;4313;-59
2022/08/20 07:25:48;;;;;;;;;;;;;;;25.27;68.44;100918.22;5000575;28;5258;-59
2022/08/20 07:28:16;;;;;;;;;;;;;;;25.27;68.54;100926.91;5002383;28;4251;-59
2022/08/20 07:33:40;;;;;;;;;;;;;;;25.26;68.29;100934.09;5000900;28;4149;-59
2022/08/20 07:36:06;;;;;;;;;;;;;;;25.25;68.34;100924.69;5000105;28;4009;-59
2022/08/20 07:38:32;;;;;;;;;;;;;;;25.25;68.36;100932.63;5001428;28;4230;-59
2022/08/20 07:41:11;;;;;;;;;;;;;;;25.25;68.48;100935.53;5000386;28;4180;-59
2022/08/20 07:43:38;;;;;;;;;;;;;;;25.25;68.30;100935.53;4999919;28;4043;-59
2022/08/20 07:46:07;;;;;;;;;;;;;;;25.24;68.43;100929.00;5000166;28;4366;-59
2022/08/20 07:48:35;;;;;;;;;;;;;;;25.25;68.32;100929.75;5000373;28;4127;-59
2022/08/20 07:51:04;;;;;;;;;;;;;;;25.25;68.28;100923.94;5001021;28;4141;-59
2022/08/20 07:53:32;;;;;;;;;;;;;;;25.24;68.17;100929.00;5000940;28;4179;-59
2022/08/20 07:56:04;;;;;;;;;;;;;;;25.24;68.23;100928.25;5000956;28;4099;-59
2022/08/20 07:58:31;;;;;;;;;;;;;;;25.24;68.18;100925.34;4999955;28;4384;-59
2022/08/20 08:00:58;;;;;;;;;;;;;;;25.24;68.11;100928.25;5006456;28;5376;-59
2022/08/20 08:03:26;;;;;;;;;;;;;;;25.24;68.24;100934.03;5001403;28;4236;-59
2022/08/20 08:06:13;;;;;;;;;;;;;;;25.24;68.29;100928.25;5001497;28;4360;-59
2022/08/20 08:08:39;;;;;;;;;;;;;;;25.21;68.30;100930.34;5000500;28;5245;-59
2022/08/20 08:11:06;;;;;;;;;;;;;;;25.22;68.21;100934.00;5001120;28;5040;-59
2022/08/20 08:13:34;;;;;;;;;;;;;;;25.21;68.41;100941.22;5000440;28;4354;-59
2022/08/20 08:16:01;;;;;;;;;;;;;;;25.21;68.29;100947.75;4998124;28;4236;-59
2022/08/20 08:18:29;;;;;;;;;;;;;;;25.21;68.20;100947.00;5000876;28;4196;-59
2022/08/20 08:20:57;;;;;;;;;;;;;;;25.22;68.35;100945.56;5000229;28;4263;-59
2022/08/20 08:23:23;;;;;;;;;;;;;;;25.22;68.34;100948.47;5000320;28;4323;-59
2022/08/20 08:25:58;;;;;;;;;;;;;;;25.22;68.28;100945.56;5000635;28;4174;-59
2022/08/20 08:28:25;;;;;;;;;;;;;;;25.21;68.30;100941.22;4999540;28;4357;-59
2022/08/20 08:30:51;;;;;;;;;;;;;;;25.22;68.30;100948.47;4999427;28;4199;-59
2022/08/20 08:33:27;;;;;;;;;;;;;;;25.21;68.28;100947.75;4999155;28;4318;-59
2022/08/20 08:36:08;;;;;;;;;;;;;;;25.21;68.28;100950.63;4999798;28;5356;-59
2022/08/20 08:38:35;;;;;;;;;;;;;;;25.22;68.36;100948.47;4999061;28;5320;-60
2022/08/20 08:41:03;;;;;;;;;;;;;;;25.22;68.35;100951.38;4998816;28;4092;-59
2022/08/20 08:43:29;;;;;;;;;;;;;;;25.22;68.30;100954.28;5004753;28;4132;-59
2022/08/20 08:46:01;;;;;;;;;;;;;;;25.21;68.07;100953.53;4997096;28;4169;-59
2022/08/20 08:48:31;;;;;;;;;;;;;;;25.21;68.10;100958.59;4998240;28;4719;-59
2022/08/20 08:50:57;;;;;;;;;;;;;;;25.22;67.98;100954.28;4999350;28;5148;-59
2022/08/20 08:53:24;;;;;;;;;;;;;;;25.23;68.05;100956.50;4999080;28;4231;-59
2022/08/20 08:55:51;;;;;;;;;;;;;;;25.23;68.12;100956.50;4997863;28;4094;-59
2022/08/20 08:58:17;;;;;;;;;;;;;;;25.23;68.30;100953.59;4999293;28;4115;-59
2022/08/20 09:00:45;;;;;;;;;;;;;;;25.23;68.15;100962.28;4998742;28;4139;-59
2022/08/20 09:03:27;;;;;;;;;;;;;;;25.23;68.00;100968.09;4997168;28;4345;-60
2022/08/20 09:05:53;;;;;;;;;;;;;;;25.24;68.17;100968.81;4996305;28;4581;-59
2022/08/20 09:08:23;;;;;;;;;;;;;;;25.23;68.26;100964.47;4999915;28;5468;-59
2022/08/20 09:10:49;;;;;;;;;;;;;;;25.23;68.26;100962.28;4998959;28;4170;-59
2022/08/20 09:13:15;;;;;;;;;;;;;;;25.23;68.35;100971.00;4998315;28;4254;-59
2022/08/20 09:15:42;;;;;;;;;;;;;;;25.23;68.41;100967.34;4997325;28;4267;-59
2022/08/20 09:18:08;;;;;;;;;;;;;;;25.22;68.15;100960.81;4999165;28;5503;-60
2022/08/20 09:20:34;;;;;;;;;;;;;;;25.23;68.39;100967.34;4997547;28;4519;-59
2022/08/20 09:23:03;;;;;;;;;;;;;;;25.23;68.19;100973.16;4997691;28;4518;-59
2022/08/20 09:25:30;;;;;;;;;;;;;;;25.24;68.28;100972.47;4997675;28;4294;-60
2022/08/20 09:27:56;;;;;;;;;;;;;;;25.23;68.35;100973.16;4998850;28;4206;-59
2022/08/20 09:30:22;;;;;;;;;;;;;;;25.23;68.17;100973.16;4997301;28;4189;-59
2022/08/20 09:32:52;;;;;;;;;;;;;;;25.23;68.33;100970.25;4998900;28;5292;-59
2022/08/20 09:35:19;;;;;;;;;;;;;;;25.23;68.38;100971.00;4998177;28;4321;-59
2022/08/20 09:37:45;;;;;;;;;;;;;;;25.23;68.38;100968.09;4999864;28;4215;-59
2022/08/20 09:40:16;;;;;;;;;;;;;;;25.24;68.31;100977.50;4998700;28;4096;-60
2022/08/20 09:42:46;;;;;;;;;;;;;;;25.23;68.18;100976.78;4999067;28;5238;-59
2022/08/20 09:45:13;;;;;;;;;;;;;;;25.24;68.35;100974.63;4998171;28;4134;-59
2022/08/20 09:47:39;;;;;;;;;;;;;;;25.24;68.26;100965.94;4996287;28;4160;-59
2022/08/20 09:50:21;;;;;;;;;;;;;;;25.23;68.24;100968.09;4996981;28;4071;-59
2022/08/20 09:52:49;;;;;;;;;;;;;;;25.23;68.10;100961.56;4998013;28;4248;-59
2022/08/20 09:55:20;;;;;;;;;;;;;;;25.24;68.28;100968.81;4997205;28;4220;-59
2022/08/20 09:57:46;;;;;;;;;;;;;;;25.24;68.14;100974.63;4997045;28;4207;-59
2022/08/20 10:00:13;;;;;;;;;;;;;;;25.23;68.09;100973.88;4998540;28;4174;-59
2022/08/20 10:02:39;;;;;;;;;;;;;;;25.24;68.02;100974.63;4996030;28;4121;-59
2022/08/20 10:05:06;;;;;;;;;;;;;;;25.24;67.93;100969.59;4998549;28;4131;-60
2022/08/20 10:07:34;;;;;;;;;;;;;;;25.24;68.06;100974.63;4995489;28;4200;-58
2022/08/20 10:10:01;;;;;;;;;;;;;;;25.24;68.09;100965.94;4997783;28;4161;-58
2022/08/20 10:12:27;;;;;;;;;;;;;;;25.24;67.93;100968.81;4999861;28;4149;-59
2022/08/20 10:14:54;;;;;;;;;;;;;;;25.23;68.12;100962.28;4997107;28;4145;-59
2022/08/20 10:17:20;;;;;;;;;;;;;;;25.23;67.97;100967.34;4997465;28;4392;-59
2022/08/20 10:19:47;;;;;;;;;;;;;;;25.23;67.85;100971.00;4998851;28;4138;-59
2022/08/20 10:22:13;;;;;;;;;;;;;;;25.23;68.00;100976.78;4998064;28;4314;-59
2022/08/20 10:24:40;;;;;;;;;;;;;;;25.23;67.83;100985.47;4998295;28;4482;-59
2022/08/20 10:27:06;;;;;;;;;;;;;;;25.23;67.79;100976.78;4997826;28;3965;-59
2022/08/20 10:29:32;;;;;;;;;;;;;;;25.23;67.75;100976.78;4996749;28;4394;-60
2022/08/20 10:32:06;;;;;;;;;;;;;;;25.23;67.71;100978.94;4997415;28;4223;-59
2022/08/20 10:34:33;;;;;;;;;;;;;;;25.23;67.77;100973.88;4998458;28;4574;-59
2022/08/20 10:36:59;;;;;;;;;;;;;;;25.23;67.63;100979.69;4996691;28;4153;-59
2022/08/20 10:39:25;;;;;;;;;;;;;;;25.23;67.43;100985.47;4998013;28;4264;-59
2022/08/20 10:41:56;;;;;;;;;;;;;;;25.23;67.45;100984.75;4996668;28;4223;-59
2022/08/20 10:44:23;;;;;;;;;;;;;;;25.24;67.37;100986.22;4997174;28;4339;-59
2022/08/20 10:46:49;;;;;;;;;;;;;;;25.23;67.45;100982.56;4995607;28;4190;-59
2022/08/20 10:49:22;;;;;;;;;;;;;;;25.22;67.31;100978.22;4997501;28;4556;-59
2022/08/20 10:51:48;;;;;;;;;;;;;;;25.24;67.28;100986.22;4996892;28;4130;-59
2022/08/20 10:54:14;;;;;;;;;;;;;;;25.23;67.30;100984.75;4996140;28;4004;-58
2022/08/20 10:56:41;;;;;;;;;;;;;;;25.23;67.13;100979.69;4995079;28;5514;-59
2022/08/20 10:59:07;;;;;;;;;;;;;;;25.23;67.05;100985.47;4999036;28;4271;-60
2022/08/20 11:01:33;;;;;;;;;;;;;;;25.24;67.05;100995.66;4998548;28;4265;-59
2022/08/20 11:04:02;;;;;;;;;;;;;;;25.25;66.86;100996.41;4996590;28;4226;-59
2022/08/20 11:06:28;;;;;;;;;;;;;;;25.24;66.80;100992.00;4997224;28;4570;-59
2022/08/20 11:08:55;;;;;;;;;;;;;;;25.25;66.70;100990.59;4998714;28;5571;-59
2022/08/20 11:11:22;;;;;;;;;;;;;;;25.25;66.62;101005.09;4996911;28;4229;-60
2022/08/20 11:13:48;;;;;;;;;;;;;;;25.24;66.47;101003.59;4997401;28;5215;-60
2022/08/20 11:16:15;;;;;;;;;;;;;;;25.24;66.58;101003.59;4997353;28;4223;-59
2022/08/20 11:18:41;;;;;;;;;;;;;;;25.24;66.48;101003.59;4996737;28;5561;-60
2022/08/20 11:21:12;;;;;;;;;;;;;;;25.23;66.35;101002.88;4998686;28;4449;-60
2022/08/20 11:23:39;;;;;;;;;;;;;;;25.24;66.19;101015.97;4996960;28;4087;-60
2022/08/20 11:26:05;;;;;;;;;;;;;;;25.24;66.20;101015.19;4997431;28;4300;-59
2022/08/20 11:28:32;;;;;;;;;;;;;;;25.22;66.07;101004.31;4997099;28;4232;-60
2022/08/20 11:30:59;;;;;;;;;;;;;;;25.23;65.88;101014.47;4997779;28;4173;-60
2022/08/20 11:33:25;;;;;;;;;;;;;;;25.23;65.85;101014.47;4999096;28;4256;-59
2022/08/20 11:35:52;;;;;;;;;;;;;;;25.23;65.79;101013.72;4997578;28;4143;-60
2022/08/20 11:38:18;;;;;;;;;;;;;;;25.22;65.52;101018.03;4997508;28;4235;-60
2022/08/20 11:40:45;;;;;;;;;;;;;;;25.22;65.44;101018.78;4996784;28;4481;-60
2022/08/20 11:43:12;;;;;;;;;;;;;;;25.23;65.43;101019.53;4997983;28;5497;-60
2022/08/20 11:45:41;;;;;;;;;;;;;;;25.22;65.26;101018.03;4994852;28;4280;-59
2022/08/20 11:48:07;;;;;;;;;;;;;;;25.22;64.99;101018.03;4997850;28;5488;-60
2022/08/20 11:50:34;;;;;;;;;;;;;;;25.23;65.17;101013.72;4998521;28;4242;-60
2022/08/20 11:53:00;;;;;;;;;;;;;;;25.22;65.07;101015.13;4997923;28;4046;-60
2022/08/20 11:55:27;;;;;;;;;;;;;;;25.23;64.92;101022.41;4998249;28;4208;-60
2022/08/20 11:57:56;;;;;;;;;;;;;;;25.22;65.16;101023.81;4998562;28;4154;-59
2022/08/20 12:00:26;;;;;;;;;;;;;;;25.22;64.79;101023.81;5000534;28;4237;-60
2022/08/20 12:02:58;;;;;;;;;;;;;;;25.22;65.07;101020.94;5000647;28;4181;-59
2022/08/20 12:05:26;;;;;;;;;;;;;;;25.21;64.86;101017.28;5000912;28;4220;-60
2022/08/20 12:07:52;;;;;;;;;;;;;;;25.21;64.92;101017.28;5001502;28;5223;-59
2022/08/20 12:10:19;;;;;;;;;;;;;;;25.21;64.89;101022.34;5000375;28;5190;-60
2022/08/20 12:12:45;;;;;;;;;;;;;;;25.21;64.94;101022.34;5000353;28;4188;-59
2022/08/20 12:15:11;;;;;;;;;;;;;;;25.19;64.89;101019.41;4998696;28;4150;-60
2022/08/20 12:17:38;;;;;;;;;;;;;;;25.18;64.90;101020.81;4997772;28;5341;-60
2022/08/20 12:20:08;;;;;;;;;;;;;;;25.20;64.62;101012.19;5001075;28;4593;-60
2022/08/20 12:22:35;;;;;;;;;;;;;;;25.18;64.69;101007.06;5000124;28;5419;-60
2022/08/20 12:25:01;;;;;;;;;;;;;;;25.19;64.52;101013.59;5000909;28;4176;-59
2022/08/20 12:27:28;;;;;;;;;;;;;;;25.18;64.51;101018.66;4999950;28;5334;-59
2022/08/20 12:29:56;;;;;;;;;;;;;;;25.17;64.59;101016.41;4999257;28;4255;-59
2022/08/20 12:32:24;;;;;;;;;;;;;;;25.17;64.38;101022.94;5000785;28;5547;-60
2022/08/20 12:34:51;;;;;;;;;;;;;;;25.18;64.32;101018.66;5000014;28;5274;-60
2022/08/20 12:37:18;;;;;;;;;;;;;;;25.18;64.38;101018.66;5001514;28;4230;-60
2022/08/20 12:39:46;;;;;;;;;;;;;;;25.17;64.37;101022.22;4998633;28;4198;-59
2022/08/20 12:42:12;;;;;;;;;;;;;;;25.16;64.35;101014.94;4998240;28;4044;-60
2022/08/20 12:44:40;;;;;;;;;;;;;;;25.16;64.25;101020.75;4999101;28;4369;-60
2022/08/20 12:47:07;;;;;;;;;;;;;;;25.16;64.29;101023.63;5000298;28;4367;-59
2022/08/20 12:49:34;;;;;;;;;;;;;;;25.16;64.11;101014.94;4998316;28;4829;-59
2022/08/20 12:52:00;;;;;;;;;;;;;;;25.16;64.00;101027.28;5001592;28;4262;-59
2022/08/20 12:54:26;;;;;;;;;;;;;;;25.16;64.04;101032.34;4999977;28;4204;-60
2022/08/20 12:56:53;;;;;;;;;;;;;;;25.17;64.14;101030.91;4999955;28;5552;-60
2022/08/20 12:59:21;;;;;;;;;;;;;;;25.17;64.09;101033.78;5000130;28;4343;-59
2022/08/20 13:01:51;;;;;;;;;;;;;;;25.16;64.25;101032.34;4998819;28;4376;-60